createdAt,value
2024-02-10T00:00:22.019Z,57.03
2024-02-10T00:05:27.560Z,64.60
2024-02-10T00:10:35.337Z,66.60
2024-02-10T00:15:41.917Z,68.23
2024-02-10T00:20:49.029Z,63.70
2024-02-10T00:25:54.788Z,75.93
2024-02-10T00:31:01.253Z,84.73
2024-02-10T00:36:07.827Z,80.53
2024-02-10T00:41:14.529Z,61.03
2024-02-10T00:46:20.929Z,63.03
2024-02-10T00:51:26.266Z,65.77
2024-02-10T00:56:31.389Z,54.53
2024-02-10T01:01:37.558Z,55.87
2024-02-10T01:06:44.353Z,55.57
2024-02-10T01:11:49.655Z,52.50
2024-02-10T01:16:55.189Z,51.47
2024-02-10T01:22:00.534Z,52.60
2024-02-10T01:27:07.490Z,54.40
2024-02-10T01:32:12.694Z,53.43
2024-02-10T01:37:19.254Z,52.03
2024-02-10T01:42:28.804Z,52.87
2024-02-10T01:47:35.406Z,53.23
2024-02-10T01:52:41.885Z,50.73
2024-02-10T01:57:49.184Z,51.40
2024-02-10T02:02:56.651Z,52.13
2024-02-10T02:08:04.987Z,48.57
2024-02-10T02:13:10.294Z,49.07
2024-02-10T02:18:15.944Z,49.90
2024-02-10T02:23:21.219Z,48.50
2024-02-10T02:28:26.955Z,48.50
2024-02-10T02:33:34.162Z,48.00
2024-02-10T02:38:41.489Z,48.23
2024-02-10T02:43:46.829Z,47.67
2024-02-10T02:48:53.466Z,46.47
2024-02-10T02:53:59.089Z,44.57
2024-02-10T02:59:05.941Z,42.60
2024-02-10T03:04:11.715Z,43.03
2024-02-10T03:09:17.859Z,43.63
2024-02-10T03:14:23.181Z,44.10
2024-02-10T03:19:28.582Z,44.67
2024-02-10T03:24:34.890Z,42.23
2024-02-10T03:29:40.733Z,43.87
2024-02-10T03:34:46.478Z,39.00
2024-02-10T03:39:53.784Z,38.73
2024-02-10T03:44:59.361Z,36.47
2024-02-10T03:50:06.111Z,35.67
2024-02-10T03:55:12.195Z,38.07
2024-02-10T04:00:22.059Z,37.57
2024-02-10T04:05:29.457Z,37.97
2024-02-10T04:10:34.940Z,37.33
2024-02-10T04:15:41.208Z,38.47
2024-02-10T04:20:48.071Z,42.07
2024-02-10T04:25:53.691Z,38.43
2024-02-10T04:30:59.232Z,40.00
2024-02-10T04:36:05.137Z,40.50
2024-02-10T04:41:10.306Z,40.63
2024-02-10T04:46:18.380Z,38.97
2024-02-10T04:51:25.103Z,39.87
2024-02-10T04:56:31.308Z,39.87
2024-02-10T05:06:54.761Z,41.10
2024-02-10T05:12:00.372Z,40.20
2024-02-10T05:17:06.224Z,40.17
2024-02-10T05:22:13.511Z,48.17
2024-02-10T05:27:18.834Z,60.80
2024-02-10T05:32:24.582Z,88.53
2024-02-10T05:37:29.785Z,51.83
2024-02-10T05:42:34.952Z,46.50
2024-02-10T05:47:41.395Z,59.00
2024-02-10T05:52:46.746Z,52.03
2024-02-10T05:57:53.468Z,53.30
2024-02-10T06:02:58.735Z,45.57
2024-02-10T06:08:04.301Z,43.37
2024-02-10T06:13:09.839Z,43.77
2024-02-10T06:18:18.351Z,46.40
2024-02-10T06:23:25.991Z,43.87
2024-02-10T06:28:32.520Z,43.77
2024-02-10T06:33:37.668Z,46.47
2024-02-10T06:38:43.547Z,44.27
2024-02-10T06:43:48.923Z,44.43
2024-02-10T06:48:54.308Z,43.63
2024-02-10T06:53:59.785Z,44.50
2024-02-10T06:59:05.704Z,44.87
2024-02-10T07:04:12.900Z,43.20
2024-02-10T07:09:19.413Z,38.93
2024-02-10T07:14:25.075Z,40.60
2024-02-10T07:19:32.637Z,41.63
2024-02-10T07:24:39.586Z,43.47
2024-02-10T07:29:46.375Z,43.37
2024-02-10T07:34:51.665Z,49.23
2024-02-10T07:39:58.342Z,43.77
2024-02-10T07:45:03.999Z,43.63
2024-02-10T07:50:12.030Z,41.80
2024-02-10T07:55:18.013Z,42.87
2024-02-10T08:00:24.656Z,36.93
2024-02-10T08:05:31.108Z,33.80
2024-02-10T08:10:36.422Z,30.37
2024-02-10T08:15:42.079Z,28.77
2024-02-10T08:20:47.660Z,28.57
2024-02-10T08:25:54.454Z,29.37
2024-02-10T08:31:00.846Z,39.20
2024-02-10T08:36:07.357Z,34.03
2024-02-10T08:41:13.257Z,30.07
2024-02-10T08:46:20.603Z,30.70
2024-02-10T08:51:27.351Z,28.40
2024-02-10T08:56:34.920Z,28.63
2024-02-10T09:01:42.491Z,30.37
2024-02-10T09:06:47.869Z,33.93
2024-02-10T09:11:53.216Z,32.97
2024-02-10T09:17:00.047Z,31.20
2024-02-10T09:22:06.413Z,30.97
2024-02-10T09:27:11.821Z,29.57
2024-02-10T09:32:17.137Z,27.10
2024-02-10T09:37:22.587Z,24.07
2024-02-10T09:42:30.842Z,24.00
2024-02-10T09:47:37.005Z,22.40
2024-02-10T09:52:43.945Z,22.77
2024-02-10T09:57:50.514Z,21.70
2024-02-10T10:02:57.372Z,18.80
2024-02-10T10:08:02.614Z,18.20
2024-02-10T10:13:10.872Z,17.17
2024-02-10T10:18:17.974Z,17.20
2024-02-10T10:23:23.599Z,15.87
2024-02-10T10:28:29.042Z,17.30
2024-02-10T10:33:36.269Z,18.20
2024-02-10T10:38:45.635Z,15.87
2024-02-10T10:43:52.411Z,17.13
2024-02-10T10:48:58.018Z,17.47
2024-02-10T10:54:05.611Z,16.83
2024-02-10T10:59:12.169Z,16.40
2024-02-10T11:04:19.247Z,17.63
2024-02-10T11:09:26.625Z,18.33
2024-02-10T11:14:31.972Z,16.30
2024-02-10T11:19:37.482Z,17.27
2024-02-10T11:24:49.098Z,15.97
2024-02-10T11:29:58.473Z,16.20
2024-02-10T11:35:04.332Z,16.00
2024-02-10T11:40:13.916Z,15.63
2024-02-10T11:45:20.971Z,14.00
2024-02-10T11:50:26.275Z,13.80
2024-02-10T11:55:34.469Z,16.67
2024-02-10T12:00:41.711Z,18.17
2024-02-10T12:05:48.431Z,18.13
2024-02-10T12:10:53.946Z,22.10
2024-02-10T12:16:04.826Z,19.23
2024-02-10T12:21:11.613Z,20.33
2024-02-10T12:26:17.590Z,17.80
2024-02-10T12:31:22.865Z,21.10
2024-02-10T12:36:29.749Z,18.60
2024-02-10T12:41:36.532Z,15.23
2024-02-10T12:46:42.022Z,14.50
2024-02-10T12:51:48.976Z,13.83
2024-02-10T12:56:54.938Z,17.03
2024-02-10T13:02:00.171Z,15.90
2024-02-10T13:07:05.725Z,16.90
2024-02-10T13:12:10.904Z,25.37
2024-02-10T13:17:16.200Z,22.70
2024-02-10T13:22:21.481Z,23.63
2024-02-10T13:27:27.081Z,23.00
2024-02-10T13:32:32.819Z,23.03
2024-02-10T13:37:55.976Z,23.20
2024-02-10T13:43:19.329Z,24.63
2024-02-10T13:48:42.405Z,25.90
2024-02-10T13:54:05.786Z,25.50
2024-02-10T13:59:10.135Z,24.27
2024-02-10T14:04:17.117Z,25.23
2024-02-10T14:09:24.114Z,28.37
2024-02-10T14:14:30.277Z,29.97
2024-02-10T14:19:35.491Z,48.10
2024-02-10T14:24:42.892Z,42.67
2024-02-10T14:29:48.667Z,77.40
2024-02-10T14:35:06.161Z,199.77
2024-02-10T14:40:14.653Z,85.60
2024-02-10T14:45:22.325Z,52.53
2024-02-10T14:50:29.054Z,47.23
2024-02-10T14:55:34.346Z,43.63
2024-02-10T15:00:39.563Z,48.90
2024-02-10T15:05:44.965Z,46.37
2024-02-10T15:10:50.976Z,48.70
2024-02-10T15:15:56.239Z,75.43
2024-02-10T15:21:01.405Z,62.57
2024-02-10T15:26:07.474Z,73.70
2024-02-10T15:31:13.054Z,77.97
2024-02-10T15:36:27.511Z,64.60
2024-02-10T15:41:35.238Z,64.97
2024-02-10T15:46:41.661Z,65.43
2024-02-10T15:51:47.396Z,84.47
2024-02-10T15:56:54.207Z,79.27
2024-02-10T16:01:59.513Z,82.07
2024-02-10T16:07:05.364Z,93.13
2024-02-10T16:12:10.715Z,79.47
2024-02-10T16:17:16.469Z,76.37
2024-02-10T16:22:21.904Z,62.70
2024-02-10T16:27:28.624Z,81.17
2024-02-10T16:32:35.160Z,115.33
2024-02-10T16:37:40.689Z,89.53
2024-02-10T16:42:45.933Z,102.70
2024-02-10T16:47:52.302Z,138.23
2024-02-10T16:53:02.317Z,197.40
2024-02-10T16:58:09.401Z,83.03
2024-02-10T17:03:15.317Z,72.57
2024-02-10T17:08:23.681Z,79.43
2024-02-10T17:13:29.796Z,76.00
2024-02-10T17:18:37.340Z,95.03
2024-02-10T17:23:42.642Z,81.40
2024-02-10T17:28:47.988Z,86.40
2024-02-10T17:33:53.363Z,83.47
2024-02-10T17:39:01.856Z,79.00
2024-02-10T17:44:07.413Z,77.07
2024-02-10T17:49:12.838Z,80.63
2024-02-10T17:54:20.601Z,90.43
2024-02-10T17:59:27.449Z,90.40
2024-02-10T18:04:32.982Z,90.33
2024-02-10T18:09:39.470Z,83.73
2024-02-10T18:14:44.672Z,77.70
2024-02-10T18:19:50.036Z,76.53
2024-02-10T18:24:55.423Z,73.17
2024-02-10T18:30:00.709Z,70.80
2024-02-10T18:35:07.530Z,84.10
2024-02-10T18:40:14.028Z,126.20
2024-02-10T18:45:19.781Z,63.90
2024-02-10T18:50:25.162Z,70.80
2024-02-10T18:55:31.072Z,83.93
2024-02-10T19:00:36.551Z,87.87
2024-02-10T19:05:42.101Z,86.03
2024-02-10T19:10:48.614Z,133.77
2024-02-10T19:15:53.971Z,173.83
2024-02-10T19:21:00.716Z,227.60
2024-02-10T19:26:07.614Z,120.63
2024-02-10T19:31:14.275Z,98.27
2024-02-10T19:36:20.479Z,117.37
2024-02-10T19:41:27.041Z,135.40
2024-02-10T19:46:32.283Z,66.63
2024-02-10T19:51:38.265Z,59.70
2024-02-10T19:56:43.795Z,62.13
2024-02-10T20:01:49.243Z,65.07
2024-02-10T20:06:56.457Z,109.30
2024-02-10T20:12:04.131Z,77.27
2024-02-10T20:17:11.361Z,81.80
2024-02-10T20:22:18.742Z,62.77
2024-02-10T20:27:24.828Z,61.30
2024-02-10T20:32:29.997Z,58.67
2024-02-10T20:37:35.736Z,55.43
2024-02-10T20:42:41.610Z,55.07
2024-02-10T20:47:49.667Z,52.10
2024-02-10T20:52:55.379Z,47.63
2024-02-10T20:58:02.188Z,49.37
2024-02-10T21:03:08.574Z,51.37
2024-02-10T21:08:14.847Z,53.60
2024-02-10T21:13:20.220Z,50.57
2024-02-10T21:18:26.530Z,48.20
2024-02-10T21:23:33.523Z,47.90
2024-02-10T21:28:41.471Z,50.13
2024-02-10T21:33:46.847Z,48.80
2024-02-10T21:38:52.172Z,51.17
2024-02-10T21:43:57.450Z,48.50
2024-02-10T21:49:03.540Z,55.77
2024-02-10T21:54:08.875Z,95.67
2024-02-10T21:59:16.306Z,51.53
2024-02-10T22:04:23.473Z,60.60
2024-02-10T22:09:29.012Z,61.67
2024-02-10T22:14:34.980Z,61.80
2024-02-10T22:19:40.239Z,62.53
2024-02-10T22:24:45.519Z,45.00
2024-02-10T22:29:51.014Z,49.13
2024-02-10T22:34:56.484Z,47.40
2024-02-10T22:40:01.974Z,40.63
2024-02-10T22:45:09.827Z,41.90
2024-02-10T22:50:16.634Z,45.90
2024-02-10T22:55:23.878Z,47.93
2024-02-10T23:00:35.324Z,42.17
2024-02-10T23:05:40.006Z,45.43
2024-02-10T23:10:45.765Z,51.90
2024-02-10T23:15:52.372Z,48.63
2024-02-10T23:20:59.548Z,46.10
2024-02-10T23:26:06.613Z,45.13
2024-02-10T23:31:12.829Z,45.23
2024-02-10T23:36:21.066Z,50.17
2024-02-10T23:41:26.580Z,43.87
2024-02-10T23:46:33.013Z,41.10
2024-02-10T23:51:38.612Z,42.10
2024-02-10T23:56:45.467Z,41.90
